createdAt,value
2023-01-19T00:01:34.736Z,99628.81
2023-01-19T00:06:36.449Z,99620.78
2023-01-19T00:11:38.483Z,99615.66
2023-01-19T00:16:40.137Z,99611.13
2023-01-19T00:21:41.765Z,99626.25
2023-01-19T00:26:43.438Z,99634.09
2023-01-19T00:31:45.246Z,99639.13
2023-01-19T00:36:46.972Z,99637.59
2023-01-19T00:42:06.959Z,99641.13
2023-01-19T00:47:08.615Z,99636.66
2023-01-19T00:52:11.008Z,99643.06
2023-01-19T00:57:12.827Z,99648.38
2023-01-19T01:02:14.739Z,99645.78
2023-01-19T01:07:16.545Z,99648.28
2023-01-19T01:12:18.229Z,99652.53
2023-01-19T01:17:24.970Z,99656.63
2023-01-19T01:22:27.566Z,99652.13
2023-01-19T01:27:29.250Z,99641.47
2023-01-19T01:32:30.948Z,99652.88
2023-01-19T01:37:32.707Z,99657.59
2023-01-19T01:42:34.946Z,99655.59
2023-01-19T01:47:44.443Z,99652.13
2023-01-19T01:53:08.621Z,99651.19
2023-01-19T01:58:11.609Z,99651.19
2023-01-19T02:03:13.319Z,99651.28
2023-01-19T02:08:38.873Z,99648.94
2023-01-19T02:13:45.271Z,99646.09
2023-01-19T02:18:48.197Z,99653.06
2023-01-19T02:23:52.668Z,99655.59
2023-01-19T02:29:02.572Z,99656.50
2023-01-19T02:34:06.328Z,99656.50
2023-01-19T02:39:09.837Z,99651.50
2023-01-19T02:44:13.654Z,99658.50
2023-01-19T02:49:15.492Z,99657.50
2023-01-19T02:54:36.461Z,99649.56
2023-01-19T02:59:56.204Z,99656.63
2023-01-19T03:05:26.725Z,99659.44
2023-01-19T03:10:32.601Z,99658.50
2023-01-19T03:15:46.855Z,99654.16
2023-01-19T03:20:53.708Z,99656.69
2023-01-19T03:25:58.011Z,99667.28
2023-01-19T03:31:05.654Z,99675.31
2023-01-19T03:36:14.471Z,99670.88
2023-01-19T03:41:19.735Z,99664.81
2023-01-19T03:46:23.837Z,99672.75
2023-01-19T03:51:26.234Z,99676.22
2023-01-19T03:56:27.909Z,99678.03
2023-01-19T04:01:29.666Z,99686.81
2023-01-19T04:06:32.225Z,99690.50
2023-01-19T04:11:34.302Z,99698.97
2023-01-19T04:16:36.018Z,99705.88
2023-01-19T04:21:37.681Z,99709.69
2023-01-19T04:26:39.341Z,99711.56
2023-01-19T04:31:41.301Z,99706.19
2023-01-19T04:36:43.051Z,99701.06
2023-01-19T04:41:44.779Z,99714.09
2023-01-19T04:46:46.591Z,99714.88
2023-01-19T04:51:48.543Z,99714.22
2023-01-19T04:56:50.283Z,99725.72
2023-01-19T05:01:52.207Z,99724.03
2023-01-19T05:06:54.463Z,99729.13
2023-01-19T05:11:56.261Z,99735.28
2023-01-19T05:16:58.044Z,99730.88
2023-01-19T05:21:59.729Z,99737.47
2023-01-19T05:27:02.024Z,99740.06
2023-01-19T05:32:03.972Z,99751.31
2023-01-19T05:37:05.809Z,99738.34
2023-01-19T05:42:07.543Z,99748.31
2023-01-19T05:47:09.187Z,99756.75
2023-01-19T05:52:10.884Z,99767.28
2023-01-19T05:57:12.783Z,99762.06
2023-01-19T06:02:14.526Z,99776.94
2023-01-19T06:07:16.521Z,99806.09
2023-01-19T06:12:18.188Z,99810.69
2023-01-19T06:17:20.519Z,99826.31
2023-01-19T06:22:23.256Z,99822.81
2023-01-19T06:27:24.919Z,99819.25
2023-01-19T06:32:26.574Z,99815.97
2023-01-19T06:37:30.571Z,99820.09
2023-01-19T06:42:32.625Z,99824.00
2023-01-19T06:47:34.585Z,99824.69
2023-01-19T06:52:42.688Z,99838.09
2023-01-19T06:57:44.723Z,99843.44
2023-01-19T07:02:46.423Z,99848.56
2023-01-19T07:07:57.765Z,99847.72
2023-01-19T07:12:59.880Z,99845.31
2023-01-19T07:18:05.724Z,99838.94
2023-01-19T07:23:07.411Z,99837.38
2023-01-19T07:28:09.422Z,99845.19
2023-01-19T07:33:11.179Z,99862.03
2023-01-19T07:38:12.822Z,99870.34
2023-01-19T07:43:15.594Z,99875.00
2023-01-19T07:48:17.300Z,99882.94
2023-01-19T07:53:19.334Z,99879.91
2023-01-19T07:58:20.975Z,99889.56
2023-01-19T08:03:22.895Z,99891.66
2023-01-19T08:08:24.576Z,99895.19
2023-01-19T08:13:26.572Z,99899.69
2023-01-19T08:18:28.249Z,99902.34
2023-01-19T08:23:29.940Z,99906.59
2023-01-19T08:28:31.613Z,99904.75
2023-01-19T08:33:33.287Z,99907.31
2023-01-19T08:38:35.028Z,99911.69
2023-01-19T08:43:38.118Z,99913.38
2023-01-19T08:48:40.165Z,99924.97
2023-01-19T08:53:42.980Z,99926.28
2023-01-19T08:58:49.389Z,99930.56
2023-01-19T09:03:58.289Z,99941.16
2023-01-19T09:09:00.230Z,99954.59
2023-01-19T09:14:02.451Z,99962.31
2023-01-19T09:19:04.663Z,99963.94
2023-01-19T09:24:06.678Z,99969.09
2023-01-19T09:29:08.466Z,99974.31
2023-01-19T09:34:11.137Z,99978.72
2023-01-19T09:39:12.930Z,99986.44
2023-01-19T09:44:24.403Z,99983.00
2023-01-19T09:49:32.899Z,99987.59
2023-01-19T09:54:53.160Z,99990.16
2023-01-19T09:59:59.857Z,100000.50
2023-01-19T10:05:15.788Z,100004.06
2023-01-19T10:10:21.970Z,100017.22
2023-01-19T10:15:54.908Z,100015.53
2023-01-19T10:21:05.923Z,100018.25
2023-01-19T10:26:22.186Z,100017.00
2023-01-19T10:31:24.939Z,100019.03
2023-01-19T10:36:36.308Z,100022.59
2023-01-19T10:41:47.093Z,100019.88
2023-01-19T10:46:50.573Z,100021.72
2023-01-19T10:51:53.052Z,100018.19
2023-01-19T10:56:58.726Z,100016.38
2023-01-19T11:02:10.694Z,100017.94
2023-01-19T11:07:20.124Z,100018.25
2023-01-19T11:12:24.126Z,100020.72
2023-01-19T11:17:26.541Z,100020.03
2023-01-19T11:22:32.608Z,100021.81
2023-01-19T11:27:37.533Z,100024.31
2023-01-19T11:32:39.526Z,100027.88
2023-01-19T11:37:43.005Z,100024.44
2023-01-19T11:42:45.044Z,100022.59
2023-01-19T11:47:51.903Z,100025.47
2023-01-19T11:53:06.198Z,100024.63
2023-01-19T11:58:15.587Z,100025.53
2023-01-19T12:03:33.099Z,100026.31
2023-01-19T12:08:39.964Z,100019.41
2023-01-19T12:13:44.234Z,100027.38
2023-01-19T12:18:51.243Z,100029.19
2023-01-19T12:24:18.803Z,100031.06
2023-01-19T12:29:24.121Z,100025.63
2023-01-19T12:34:26.208Z,100022.19
2023-01-19T12:39:28.021Z,100024.75
2023-01-19T12:44:34.286Z,100024.63
2023-01-19T12:49:39.083Z,100024.56
2023-01-19T12:55:03.055Z,100018.59
2023-01-19T13:00:29.057Z,100025.47
2023-01-19T13:05:32.681Z,100029.13
2023-01-19T13:10:55.618Z,100028.41
2023-01-19T13:16:27.816Z,100029.13
2023-01-19T13:21:46.803Z,100021.31
2023-01-19T13:27:00.267Z,100026.31
2023-01-19T13:32:05.851Z,100017.69
2023-01-19T13:37:18.556Z,100028.34
2023-01-19T13:42:34.360Z,100025.69
2023-01-19T13:47:48.315Z,100029.25
2023-01-19T13:52:54.223Z,100026.78
2023-01-19T13:57:56.719Z,100035.03
2023-01-19T14:03:01.082Z,100028.19
2023-01-19T14:08:13.609Z,100032.84
2023-01-19T14:13:16.753Z,100034.00
2023-01-19T14:18:26.195Z,100039.56
2023-01-19T14:23:47.857Z,100037.13
2023-01-19T14:28:49.805Z,100038.06
2023-01-19T14:33:55.678Z,100038.34
2023-01-19T14:38:59.828Z,100040.03
2023-01-19T14:44:03.339Z,100032.28
2023-01-19T14:49:06.805Z,100040.72
2023-01-19T14:54:18.677Z,100048.25
2023-01-19T14:59:20.422Z,100044.53
2023-01-19T15:04:23.308Z,100035.78
2023-01-19T15:09:25.596Z,100045.25
2023-01-19T15:14:28.147Z,100047.97
2023-01-19T15:19:30.081Z,100059.31
2023-01-19T15:24:31.836Z,100053.03
2023-01-19T15:29:34.444Z,100057.03
2023-01-19T15:34:36.122Z,100070.81
2023-01-19T15:39:37.954Z,100076.09
2023-01-19T15:44:40.014Z,100081.25
2023-01-19T15:49:41.900Z,100082.47
2023-01-19T15:54:43.656Z,100080.44
2023-01-19T15:59:45.353Z,100087.38
2023-01-19T16:04:50.150Z,100087.59
2023-01-19T16:09:52.087Z,100086.19
2023-01-19T16:14:53.781Z,100091.31
2023-01-19T16:19:55.433Z,100097.53
2023-01-19T16:24:57.446Z,100103.03
2023-01-19T16:30:04.807Z,100104.75
2023-01-19T16:35:07.014Z,100104.53
2023-01-19T16:40:09.715Z,100099.88
2023-01-19T16:45:11.542Z,100124.53
2023-01-19T16:50:13.474Z,100121.94
2023-01-19T16:55:15.201Z,100123.66
2023-01-19T17:00:17.261Z,100118.31
2023-01-19T17:05:18.956Z,100131.63
2023-01-19T17:10:20.796Z,100133.81
2023-01-19T17:15:22.638Z,100132.81
2023-01-19T17:20:24.374Z,100128.09
2023-01-19T17:25:26.078Z,100132.59
2023-01-19T17:30:27.857Z,100134.25
2023-01-19T17:35:29.578Z,100144.50
2023-01-19T17:40:31.476Z,100146.50
2023-01-19T17:45:36.830Z,100142.63
2023-01-19T17:50:38.499Z,100147.63
2023-01-19T17:55:40.451Z,100153.50
2023-01-19T18:00:42.141Z,100160.28
2023-01-19T18:05:43.841Z,100165.34
2023-01-19T18:10:56.690Z,100167.13
2023-01-19T18:16:03.061Z,100163.56
2023-01-19T18:21:08.392Z,100169.72
2023-01-19T18:26:15.876Z,100166.69
2023-01-19T18:31:19.226Z,100186.28
2023-01-19T18:36:21.121Z,100183.72
2023-01-19T18:41:22.874Z,100185.94
2023-01-19T18:46:25.532Z,100180.84
2023-01-19T18:51:28.432Z,100186.84
2023-01-19T18:56:30.127Z,100179.00
2023-01-19T19:01:35.211Z,100179.41
2023-01-19T19:06:36.933Z,100175.19
2023-01-19T19:11:38.751Z,100182.28
2023-01-19T19:16:40.561Z,100187.72
2023-01-19T19:21:43.274Z,100186.59
2023-01-19T19:26:45.552Z,100190.13
2023-01-19T19:31:47.392Z,100191.00
2023-01-19T19:36:49.470Z,100196.00
2023-01-19T19:41:51.195Z,100196.97
2023-01-19T19:46:53.034Z,100196.03
2023-01-19T19:51:54.783Z,100204.88
2023-01-19T19:56:56.637Z,100218.53
2023-01-19T20:01:58.694Z,100234.06
2023-01-19T20:07:00.501Z,100232.53
2023-01-19T20:12:02.229Z,100238.34
2023-01-19T20:17:05.372Z,100239.28
2023-01-19T20:22:07.758Z,100247.69
2023-01-19T20:27:09.679Z,100251.72
2023-01-19T20:32:11.650Z,100255.00
2023-01-19T20:37:13.364Z,100257.66
2023-01-19T20:42:16.657Z,100279.59
2023-01-19T20:47:18.705Z,100281.84
2023-01-19T20:52:21.708Z,100286.03
2023-01-19T20:57:23.705Z,100296.44
2023-01-19T21:02:28.412Z,100292.88
2023-01-19T21:07:30.355Z,100304.59
2023-01-19T21:12:32.050Z,100312.25
2023-01-19T21:17:34.025Z,100318.66
2023-01-19T21:22:35.990Z,100324.25
2023-01-19T21:27:37.679Z,100342.09
2023-01-19T21:32:39.523Z,100335.75
2023-01-19T21:37:41.301Z,100336.16
2023-01-19T21:42:42.978Z,100353.34
2023-01-19T21:47:44.653Z,100354.13
2023-01-19T21:52:46.343Z,100357.47
2023-01-19T21:57:48.059Z,100353.81
2023-01-19T22:03:02.975Z,100364.50
2023-01-19T22:08:06.649Z,100370.94
2023-01-19T22:13:09.854Z,100381.72
2023-01-19T22:18:11.710Z,100378.88
2023-01-19T22:23:13.558Z,100386.06
2023-01-19T22:28:15.249Z,100391.00
2023-01-19T22:33:16.971Z,100397.72
2023-01-19T22:38:19.037Z,100392.88
2023-01-19T22:43:20.724Z,100394.06
2023-01-19T22:48:22.443Z,100400.41
2023-01-19T22:53:24.100Z,100414.59
2023-01-19T22:58:25.789Z,100411.28
2023-01-19T23:03:29.111Z,100423.97
2023-01-19T23:08:30.864Z,100415.84
2023-01-19T23:13:32.661Z,100417.88
2023-01-19T23:18:34.387Z,100425.94
2023-01-19T23:23:36.786Z,100426.66
2023-01-19T23:28:39.576Z,100432.38
2023-01-19T23:33:41.918Z,100435.78
2023-01-19T23:38:49.035Z,100451.81
2023-01-19T23:43:51.445Z,100452.44
2023-01-19T23:48:53.417Z,100452.75
2023-01-19T23:53:56.215Z,100457.94
2023-01-19T23:59:00.513Z,100460.47
